Time;durP1;ratioP1;P1;durP2;ratioP2;P2;SDS_P1;SDS_P2;PMS_P1;PMS_P2;Temp;Humidity;BMP_temperature;BMP_pressure;BME280_temperature;BME280_humidity;BME280_pressure;Samples;Min_cycle;Max_cycle;Signal;HPM_P1;HPM_P2
2022/01/23 00:02:45;;;;;;;16.90;7.32;;;38.50;2201.60;;;;;;6241602;23;20032;-96
2022/01/23 00:05:15;;;;;;;15.10;9.27;;;38.60;2201.60;;;;;;6269585;23;19993;-96
2022/01/23 00:07:43;;;;;;;10.30;6.93;;;38.60;2201.60;;;;;;6216598;23;20004;-96
2022/01/23 00:10:10;;;;;;;8.80;4.93;;;38.60;2201.60;;;;;;6237041;23;20004;-96
2022/01/23 00:12:45;;;;;;;16.80;9.32;;;38.70;2201.60;;;;;;6233626;23;20531;-96
2022/01/23 00:23:15;;;;;;;12.55;7.50;;;38.70;2201.60;;;;;;6260707;22;20061;-96
2022/01/23 00:31:35;;;;;;;13.30;7.90;;;38.70;2201.60;;;;;;6206377;23;20067;-96
2022/01/23 03:39:37;;;;;;;53.08;28.20;;;;;;;;;;6238184;23;20071;-96
2022/01/23 03:42:03;;;;;;;68.25;33.65;;;;;;;;;;6205571;23;20072;-96
2022/01/23 03:44:29;;;;;;;61.50;30.67;;;;;;;;;;6221644;23;20009;-96
2022/01/23 03:49:34;;;;;;;58.35;32.83;;;;;;;;;;6237363;23;19989;-96
2022/01/23 14:24:32;;;;;;;14.38;8.93;;;;;;;;;;5044810;27;20448;-92
2022/01/23 14:27:06;;;;;;;16.75;11.32;;;;;;;;;;5066271;28;20043;-94
2022/01/23 14:29:34;;;;;;;14.60;10.48;;;;;;;;;;5052675;28;20100;-92
2022/01/23 14:39:47;;;;;;;17.73;10.27;;;;;;;;;;5935137;23;20165;-95
2022/01/23 14:42:15;;;;;;;14.57;8.13;;;;;;;;;;4999292;28;20473;-95
2022/01/23 14:44:41;;;;;;;18.02;10.70;;;;;;;;;;5002722;28;20033;-95
2022/01/23 14:47:09;;;;;;;16.02;8.27;;;;;;;;;;4996289;28;20358;-95
2022/01/23 14:49:37;;;;;;;16.00;11.07;;;;;;;;;;5004998;28;20023;-96
2022/01/23 14:55:07;;;;;;;16.33;9.50;;;;;;;;;;5013627;28;20046;-95
2022/01/23 15:05:29;;;;;;;16.75;9.70;;;;;;;;;;5483347;23;21601;-96
2022/01/23 15:46:20;;;;;;;45.80;27.00;;;;;;;;;;6033444;23;20126;-96
2022/01/23 15:48:46;;;;;;;42.97;24.33;;;;;;;;;;4974053;28;20102;-96
2022/01/23 15:51:12;;;;;;;22.52;13.15;;;;;;;;;;4972350;28;20007;-96
2022/01/23 15:53:38;;;;;;;36.97;23.23;;;;;;;;;;4964263;28;20042;-96
2022/01/23 15:56:05;;;;;;;44.50;24.45;;;;;;;;;;4947741;28;20101;-95
2022/01/23 15:58:31;;;;;;;37.05;20.90;;;;;;;;;;4963499;28;20110;-95
2022/01/23 16:00:57;;;;;;;41.58;25.42;;;;;;;;;;4946926;28;20027;-95
2022/01/23 16:03:26;;;;;;;34.40;21.70;;;;;;;;;;4961915;28;20046;-94
2022/01/23 16:05:52;;;;;;;51.72;26.85;;;;;;;;;;4963018;28;20022;-94
2022/01/23 16:08:18;;;;;;;34.67;21.10;;;;;;;;;;4967810;28;20023;-95
2022/01/23 16:10:45;;;;;;;41.85;28.25;;;;;;;;;;4971297;28;20023;-94
2022/01/23 16:13:11;;;;;;;55.60;37.30;;;;;;;;;;4959510;28;20051;-95
2022/01/23 16:15:37;;;;;;;48.78;31.58;;;;;;;;;;4961158;28;20153;-94
2022/01/23 16:18:03;;;;;;;77.05;47.35;;;;;;;;;;4962259;28;20026;-95
2022/01/23 16:20:30;;;;;;;83.75;49.65;;;;;;;;;;4968754;28;20469;-95
2022/01/23 16:22:56;;;;;;;128.65;75.18;;;;;;;;;;4966588;28;20110;-95
2022/01/23 16:25:22;;;;;;;154.20;88.25;;;;;;;;;;4962444;28;20015;-96
2022/01/23 16:27:49;;;;;;;146.35;87.07;;;;;;;;;;4963724;28;20057;-96
2022/01/23 16:30:15;;;;;;;151.90;95.45;;;;;;;;;;4964907;28;20018;-95
2022/01/23 16:32:42;;;;;;;81.43;50.15;;;;;;;;;;4970584;28;20050;-96
2022/01/23 16:35:09;;;;;;;90.07;53.72;;;;;;;;;;4966610;28;20111;-95
2022/01/23 16:37:35;;;;;;;51.40;32.50;;;;;;;;;;4971218;28;20022;-94
2022/01/23 16:40:02;;;;;;;110.57;61.22;;;;;;;;;;4974983;28;20046;-94
2022/01/23 16:42:28;;;;;;;248.75;131.95;;;;;;;;;;4977706;28;20034;-95
2022/01/23 16:44:54;;;;;;;153.15;89.97;;;;;;;;;;4966743;28;20022;-94
2022/01/23 16:47:20;;;;;;;157.57;93.20;;;;;;;;;;4947376;28;20043;-94
2022/01/23 16:49:46;;;;;;;135.32;82.45;;;;;;;;;;4940302;29;20023;-93
2022/01/23 16:52:13;;;;;;;93.50;61.75;;;;;;;;;;4941385;29;20028;-96
2022/01/23 16:54:39;;;;;;;126.07;79.15;;;;;;;;;;4935796;29;20032;-96
2022/01/23 16:57:06;;;;;;;98.53;60.35;;;;;;;;;;4934393;29;20050;-96
2022/01/23 16:59:33;;;;;;;131.65;77.35;;;;;;;;;;4927350;29;20031;-96
2022/01/23 17:01:59;;;;;;;111.35;70.55;;;;;;;;;;4932670;29;20064;-95
2022/01/23 17:04:26;;;;;;;72.28;43.50;;;;;;;;;;4932719;29;20023;-94
2022/01/23 17:06:52;;;;;;;82.60;51.47;;;;;;;;;;4950310;28;20028;-95
2022/01/23 17:09:19;;;;;;;67.18;40.45;;;;;;;;;;4931955;29;20027;-94
2022/01/23 17:11:45;;;;;;;80.63;46.03;;;;;;;;;;4931488;29;20016;-95
2022/01/23 17:14:11;;;;;;;93.55;50.35;;;;;;;;;;4949934;29;20024;-94
2022/01/23 17:16:37;;;;;;;92.22;53.80;;;;;;;;;;4935802;29;20016;-95
2022/01/23 17:19:03;;;;;;;88.18;47.42;;;;;;;;;;4925758;29;20024;-95
2022/01/23 17:21:29;;;;;;;86.38;45.33;;;;;;;;;;4934951;29;20030;-95
2022/01/23 17:23:55;;;;;;;66.43;40.58;;;;;;;;;;4927586;29;20075;-95
2022/01/23 17:26:23;;;;;;;69.07;41.50;;;;;;;;;;4939419;29;20015;-96
2022/01/23 17:28:49;;;;;;;65.47;36.53;;;;;;;;;;4934105;29;20380;-94
2022/01/23 17:31:15;;;;;;;50.20;28.45;;;;;;;;;;4925876;29;20384;-96
2022/01/23 17:33:41;;;;;;;46.08;23.10;;;;;;;;;;4933709;29;20146;-96
2022/01/23 17:36:07;;;;;;;34.45;20.02;;;;;;;;;;4928030;29;20026;-96
2022/01/23 17:38:36;;;;;;;43.30;22.55;;;;;;;;;;4933258;29;20019;-95
2022/01/23 17:41:03;;;;;;;52.17;29.10;;;;;;;;;;4953157;29;20008;-96
2022/01/23 17:43:29;;;;;;;38.92;21.90;;;;;;;;;;4940531;28;20506;-95
2022/01/23 17:45:55;;;;;;;45.78;23.88;;;;;;;;;;4934268;29;20478;-94
2022/01/23 17:51:00;;;;;;;57.90;33.85;;;;;;;;;;4977113;28;20122;-95
2022/01/23 17:53:27;;;;;;;46.08;26.60;;;;;;;;;;4952831;29;20054;-96
2022/01/23 17:55:53;;;;;;;52.15;26.25;;;;;;;;;;4958453;28;20023;-96
2022/01/23 17:58:19;;;;;;;63.17;34.92;;;;;;;;;;4963347;28;20019;-95
2022/01/23 18:00:45;;;;;;;32.90;20.75;;;;;;;;;;4962113;28;20023;-95
2022/01/23 18:03:14;;;;;;;44.00;24.02;;;;;;;;;;4959854;28;20022;-95
2022/01/23 18:05:41;;;;;;;51.40;26.92;;;;;;;;;;4960805;28;20044;-96
2022/01/23 18:08:07;;;;;;;60.00;31.77;;;;;;;;;;4959391;28;20467;-94
2022/01/23 18:10:34;;;;;;;61.90;29.45;;;;;;;;;;4960591;28;20024;-95
2022/01/23 18:13:01;;;;;;;27.15;15.82;;;;;;;;;;4946502;29;20040;-95
2022/01/23 18:15:27;;;;;;;38.20;22.33;;;;;;;;;;4951430;29;20476;-96
2022/01/23 18:17:53;;;;;;;27.38;14.75;;;;;;;;;;4964712;28;20027;-95
2022/01/23 18:20:20;;;;;;;36.00;23.73;;;;;;;;;;4952366;28;20075;-94
2022/01/23 18:22:46;;;;;;;34.67;21.65;;;;;;;;;;4957906;28;20054;-93
2022/01/23 18:25:13;;;;;;;29.75;15.48;;;;;;;;;;4948919;28;20024;-96
2022/01/23 18:27:39;;;;;;;29.13;14.68;;;;;;;;;;4961070;28;20027;-95
2022/01/23 18:30:08;;;;;;;31.38;14.70;;;;;;;;;;4944686;29;20028;-95
2022/01/23 18:32:34;;;;;;;33.30;21.55;;;;;;;;;;4956254;29;20035;-95
2022/01/23 18:35:00;;;;;;;29.10;16.30;;;;;;;;;;4958458;28;20031;-95
2022/01/23 18:37:26;;;;;;;22.35;13.02;;;;;;;;;;4964107;28;20028;-94
2022/01/23 18:39:54;;;;;;;28.75;17.95;;;;;;;;;;4948823;29;20028;-94
2022/01/23 18:42:21;;;;;;;34.35;21.10;;;;;;;;;;4950569;28;20026;-95
2022/01/23 18:44:48;;;;;;;36.20;20.95;;;;;;;;;;4956134;28;20106;-94
2022/01/23 18:47:14;;;;;;;28.17;16.70;;;;;;;;;;4961680;28;20204;-94
2022/01/23 18:49:40;;;;;;;25.48;14.77;;;;;;;;;;4966742;28;20386;-94
2022/01/23 18:52:07;;;;;;;29.92;16.50;;;;;;;;;;4957695;28;20042;-94
2022/01/23 18:54:42;;;;;;;50.40;23.90;;;;;;;;;;4948634;28;20031;-94
2022/01/23 18:57:16;;;;;;;32.63;16.15;;;;;;;;;;4960348;28;20032;-94
2022/01/23 18:59:56;;;;;;;26.38;15.45;;;;;;;;;;4960372;28;20070;-95
2022/01/23 19:02:28;;;;;;;40.20;23.55;;;;;;;;;;4977819;28;20019;-94
2022/01/23 19:05:00;;;;;;;49.72;29.05;;;;;;;;;;4967703;29;20031;-95
2022/01/23 19:07:36;;;;;;;24.13;13.02;;;;;;;;;;4978814;28;20114;-95
2022/01/23 19:10:03;;;;;;;45.85;29.30;;;;;;;;;;4959042;28;20106;-95
2022/01/23 19:46:20;;;;;;;41.83;20.80;;;;;;;;;;5906218;23;21012;-96
2022/01/23 20:01:45;;;;;;;21.00;9.75;;;;;;;;;;5963246;23;20068;-96
2022/01/23 20:44:10;;;;;;;25.13;11.55;;;;;;;;;;5786971;23;20089;-95
2022/01/23 20:46:36;;;;;;;42.25;21.15;;;;;;;;;;4957701;28;20402;-95
2022/01/23 20:49:04;;;;;;;33.15;19.52;;;;;;;;;;4958482;28;20023;-95
2022/01/23 20:51:36;;;;;;;35.53;16.83;;;;;;;;;;4957348;28;20470;-96
2022/01/23 21:21:02;;;;;;;22.23;13.20;;;;;;;;;;5166583;23;20215;-95
2022/01/23 21:54:30;;;;;;;24.55;11.60;;;;;;;;;;5830145;23;20077;-96
2022/01/23 23:19:11;;;;;;;32.45;19.58;;;;;;;;;;5658327;23;20081;-95
2022/01/23 23:24:04;;;;;;;;;;;;;;;;;;5009839;28;20719;-96
2022/01/23 23:26:30;;;;;;;33.55;18.45;;;;;;;;;;5000926;28;19910;-96
2022/01/23 23:28:56;;;;;;;25.40;14.52;;;;;;;;;;4992601;28;20061;-96
2022/01/23 23:31:25;;;;;;;28.95;18.70;;;;;;;;;;4992379;28;20029;-96
2022/01/23 23:33:55;;;;;;;32.80;17.42;;;;;;;;;;5014070;28;20042;-96
2022/01/23 23:36:24;;;;;;;32.03;18.17;;;;;;;;;;5015350;28;20034;-96
2022/01/23 23:38:53;;;;;;;21.45;12.65;;;;;;;;;;4997058;28;20037;-96
2022/01/23 23:41:40;;;;;;;25.90;13.57;;;;;;;;;;5002782;28;20045;-96
2022/01/23 23:44:15;;;;;;;32.53;18.33;;;;;;;;;;4991078;28;20051;-96
2022/01/23 23:46:46;;;;;;;23.70;13.68;;;;;;;;;;4982826;28;20073;-96
2022/01/23 23:49:24;;;;;;;18.20;10.27;;;;;;;;;;4985635;28;20007;-96
2022/01/23 23:51:54;;;;;;;22.70;14.10;;;;;;;;;;4979145;28;20027;-96
2022/01/23 23:54:22;;;;;;;22.85;13.13;;;;;;;;;;4997981;28;20066;-96
